sensor_id;sensor_type;location;lat;lon;timestamp;P1;durP1;ratioP1;P2;durP2;ratioP2
25163;SDS011;13440;50.860;13.662;2022-08-19T00:00:05;45.20;;;39.20;;
25163;SDS011;13440;50.860;13.662;2022-08-19T00:02:32;46.53;;;40.20;;
25163;SDS011;13440;50.860;13.662;2022-08-19T00:04:57;43.70;;;39.00;;
25163;SDS011;13440;50.860;13.662;2022-08-19T00:07:26;42.80;;;38.20;;
25163;SDS011;13440;50.860;13.662;2022-08-19T00:09:51;44.13;;;39.08;;
25163;SDS011;13440;50.860;13.662;2022-08-19T00:12:17;43.90;;;38.90;;
25163;SDS011;13440;50.860;13.662;2022-08-19T00:14:42;45.92;;;40.53;;
25163;SDS011;13440;50.860;13.662;2022-08-19T00:17:08;46.55;;;40.15;;
25163;SDS011;13440;50.860;13.662;2022-08-19T00:19:35;43.72;;;38.17;;
25163;SDS011;13440;50.860;13.662;2022-08-19T00:22:01;44.47;;;39.63;;
25163;SDS011;13440;50.860;13.662;2022-08-19T00:24:43;46.65;;;40.10;;
25163;SDS011;13440;50.860;13.662;2022-08-19T00:27:08;43.05;;;37.85;;
25163;SDS011;13440;50.860;13.662;2022-08-19T00:29:34;41.90;;;37.28;;
25163;SDS011;13440;50.860;13.662;2022-08-19T00:31:59;45.95;;;39.25;;
25163;SDS011;13440;50.860;13.662;2022-08-19T00:34:25;42.17;;;37.58;;
25163;SDS011;13440;50.860;13.662;2022-08-19T00:36:54;46.95;;;40.22;;
25163;SDS011;13440;50.860;13.662;2022-08-19T00:39:19;40.92;;;36.50;;
25163;SDS011;13440;50.860;13.662;2022-08-19T00:41:45;44.90;;;38.67;;
25163;SDS011;13440;50.860;13.662;2022-08-19T00:44:15;39.38;;;35.13;;
25163;SDS011;13440;50.860;13.662;2022-08-19T00:46:42;46.53;;;38.53;;
25163;SDS011;13440;50.860;13.662;2022-08-19T00:49:09;46.05;;;36.38;;
25163;SDS011;13440;50.860;13.662;2022-08-19T00:51:39;41.33;;;35.47;;
25163;SDS011;13440;50.860;13.662;2022-08-19T00:54:05;41.25;;;36.80;;
25163;SDS011;13440;50.860;13.662;2022-08-19T00:56:31;41.85;;;37.45;;
25163;SDS011;13440;50.860;13.662;2022-08-19T00:58:56;39.90;;;35.65;;
25163;SDS011;13440;50.860;13.662;2022-08-19T01:01:23;42.33;;;37.47;;
25163;SDS011;13440;50.860;13.662;2022-08-19T01:03:48;43.85;;;36.88;;
25163;SDS011;13440;50.860;13.662;2022-08-19T01:06:13;43.65;;;38.15;;
25163;SDS011;13440;50.860;13.662;2022-08-19T01:08:46;41.80;;;37.13;;
25163;SDS011;13440;50.860;13.662;2022-08-19T01:11:11;44.13;;;38.03;;
25163;SDS011;13440;50.860;13.662;2022-08-19T01:13:37;45.38;;;37.50;;
25163;SDS011;13440;50.860;13.662;2022-08-19T01:16:09;44.42;;;38.47;;
25163;SDS011;13440;50.860;13.662;2022-08-19T01:18:36;43.55;;;37.72;;
25163;SDS011;13440;50.860;13.662;2022-08-19T01:21:05;45.25;;;38.70;;
25163;SDS011;13440;50.860;13.662;2022-08-19T01:23:32;44.33;;;39.65;;
25163;SDS011;13440;50.860;13.662;2022-08-19T01:26:18;42.70;;;37.78;;
25163;SDS011;13440;50.860;13.662;2022-08-19T01:28:44;46.67;;;39.17;;
25163;SDS011;13440;50.860;13.662;2022-08-19T01:31:15;41.67;;;37.25;;
25163;SDS011;13440;50.860;13.662;2022-08-19T01:33:41;41.55;;;37.10;;
25163;SDS011;13440;50.860;13.662;2022-08-19T01:36:10;43.85;;;39.30;;
25163;SDS011;13440;50.860;13.662;2022-08-19T01:38:38;48.90;;;39.15;;
25163;SDS011;13440;50.860;13.662;2022-08-19T01:41:04;43.58;;;38.83;;
25163;SDS011;13440;50.860;13.662;2022-08-19T01:43:31;41.17;;;36.90;;
25163;SDS011;13440;50.860;13.662;2022-08-19T01:45:56;43.97;;;39.17;;
25163;SDS011;13440;50.860;13.662;2022-08-19T01:48:21;45.53;;;38.25;;
25163;SDS011;13440;50.860;13.662;2022-08-19T01:50:48;44.15;;;39.50;;
25163;SDS011;13440;50.860;13.662;2022-08-19T01:53:16;47.38;;;39.42;;
25163;SDS011;13440;50.860;13.662;2022-08-19T01:55:42;47.90;;;40.15;;
25163;SDS011;13440;50.860;13.662;2022-08-19T01:58:14;43.85;;;39.10;;
25163;SDS011;13440;50.860;13.662;2022-08-19T02:00:41;41.53;;;37.03;;
25163;SDS011;13440;50.860;13.662;2022-08-19T02:03:07;45.92;;;40.95;;
25163;SDS011;13440;50.860;13.662;2022-08-19T02:05:34;43.42;;;38.83;;
25163;SDS011;13440;50.860;13.662;2022-08-19T02:07:59;43.63;;;38.63;;
25163;SDS011;13440;50.860;13.662;2022-08-19T02:10:24;47.97;;;41.63;;
25163;SDS011;13440;50.860;13.662;2022-08-19T02:12:50;46.88;;;41.15;;
25163;SDS011;13440;50.860;13.662;2022-08-19T02:15:16;48.03;;;41.28;;
25163;SDS011;13440;50.860;13.662;2022-08-19T02:17:42;51.30;;;43.38;;
25163;SDS011;13440;50.860;13.662;2022-08-19T02:20:10;47.40;;;42.03;;
25163;SDS011;13440;50.860;13.662;2022-08-19T02:22:35;43.35;;;38.80;;
25163;SDS011;13440;50.860;13.662;2022-08-19T02:25:00;43.42;;;38.67;;
25163;SDS011;13440;50.860;13.662;2022-08-19T02:27:26;45.88;;;40.70;;
25163;SDS011;13440;50.860;13.662;2022-08-19T02:29:51;43.08;;;38.50;;
25163;SDS011;13440;50.860;13.662;2022-08-19T02:32:17;47.85;;;42.00;;
25163;SDS011;13440;50.860;13.662;2022-08-19T02:34:44;46.28;;;41.25;;
25163;SDS011;13440;50.860;13.662;2022-08-19T02:37:10;50.42;;;45.05;;
25163;SDS011;13440;50.860;13.662;2022-08-19T02:39:55;41.75;;;37.25;;
25163;SDS011;13440;50.860;13.662;2022-08-19T02:42:20;40.08;;;35.70;;
25163;SDS011;13440;50.860;13.662;2022-08-19T02:44:46;40.70;;;36.25;;
25163;SDS011;13440;50.860;13.662;2022-08-19T02:47:11;39.53;;;35.38;;
25163;SDS011;13440;50.860;13.662;2022-08-19T02:49:38;43.70;;;38.97;;
25163;SDS011;13440;50.860;13.662;2022-08-19T02:52:03;42.95;;;37.78;;
25163;SDS011;13440;50.860;13.662;2022-08-19T02:54:28;44.92;;;40.08;;
25163;SDS011;13440;50.860;13.662;2022-08-19T02:56:54;42.53;;;37.53;;
25163;SDS011;13440;50.860;13.662;2022-08-19T02:59:19;44.15;;;39.58;;
25163;SDS011;13440;50.860;13.662;2022-08-19T03:01:45;44.60;;;39.75;;
25163;SDS011;13440;50.860;13.662;2022-08-19T03:04:11;44.08;;;39.17;;
25163;SDS011;13440;50.860;13.662;2022-08-19T03:06:37;44.25;;;39.47;;
25163;SDS011;13440;50.860;13.662;2022-08-19T03:09:04;42.83;;;38.30;;
25163;SDS011;13440;50.860;13.662;2022-08-19T03:11:31;43.42;;;37.92;;
25163;SDS011;13440;50.860;13.662;2022-08-19T03:13:56;44.88;;;40.08;;
25163;SDS011;13440;50.860;13.662;2022-08-19T03:16:22;42.15;;;37.65;;
25163;SDS011;13440;50.860;13.662;2022-08-19T03:18:48;45.03;;;40.17;;
25163;SDS011;13440;50.860;13.662;2022-08-19T03:21:15;45.50;;;40.63;;
25163;SDS011;13440;50.860;13.662;2022-08-19T03:23:41;45.25;;;40.38;;
25163;SDS011;13440;50.860;13.662;2022-08-19T03:26:06;46.63;;;41.72;;
25163;SDS011;13440;50.860;13.662;2022-08-19T03:28:32;48.28;;;43.13;;
25163;SDS011;13440;50.860;13.662;2022-08-19T03:30:59;47.78;;;42.60;;
25163;SDS011;13440;50.860;13.662;2022-08-19T03:33:25;47.40;;;42.33;;
25163;SDS011;13440;50.860;13.662;2022-08-19T03:36:08;48.88;;;41.28;;
25163;SDS011;13440;50.860;13.662;2022-08-19T03:38:34;48.78;;;43.50;;
25163;SDS011;13440;50.860;13.662;2022-08-19T03:41:10;44.95;;;38.78;;
25163;SDS011;13440;50.860;13.662;2022-08-19T03:43:36;48.50;;;43.28;;
25163;SDS011;13440;50.860;13.662;2022-08-19T03:46:02;45.92;;;40.90;;
25163;SDS011;13440;50.860;13.662;2022-08-19T03:48:29;52.70;;;45.53;;
25163;SDS011;13440;50.860;13.662;2022-08-19T03:50:55;50.58;;;45.05;;
25163;SDS011;13440;50.860;13.662;2022-08-19T03:53:21;47.60;;;42.40;;
25163;SDS011;13440;50.860;13.662;2022-08-19T03:55:46;49.92;;;43.28;;
25163;SDS011;13440;50.860;13.662;2022-08-19T03:58:12;54.00;;;45.83;;
25163;SDS011;13440;50.860;13.662;2022-08-19T04:00:37;48.47;;;42.75;;
25163;SDS011;13440;50.860;13.662;2022-08-19T04:03:02;51.60;;;44.00;;
25163;SDS011;13440;50.860;13.662;2022-08-19T04:05:28;51.05;;;43.97;;
25163;SDS011;13440;50.860;13.662;2022-08-19T04:07:54;53.47;;;46.22;;
25163;SDS011;13440;50.860;13.662;2022-08-19T04:10:36;51.25;;;45.15;;
25163;SDS011;13440;50.860;13.662;2022-08-19T04:13:02;51.83;;;45.25;;
25163;SDS011;13440;50.860;13.662;2022-08-19T04:15:28;51.60;;;45.53;;
25163;SDS011;13440;50.860;13.662;2022-08-19T04:17:58;55.92;;;46.65;;
25163;SDS011;13440;50.860;13.662;2022-08-19T04:20:23;51.30;;;44.30;;
25163;SDS011;13440;50.860;13.662;2022-08-19T04:22:49;52.65;;;45.70;;
25163;SDS011;13440;50.860;13.662;2022-08-19T04:25:20;54.42;;;42.72;;
25163;SDS011;13440;50.860;13.662;2022-08-19T04:27:45;47.38;;;42.13;;
25163;SDS011;13440;50.860;13.662;2022-08-19T04:30:12;46.08;;;40.22;;
25163;SDS011;13440;50.860;13.662;2022-08-19T04:32:37;53.28;;;46.47;;
25163;SDS011;13440;50.860;13.662;2022-08-19T04:35:03;50.80;;;44.45;;
25163;SDS011;13440;50.860;13.662;2022-08-19T04:37:29;51.35;;;45.30;;
25163;SDS011;13440;50.860;13.662;2022-08-19T04:39:57;51.95;;;45.15;;
25163;SDS011;13440;50.860;13.662;2022-08-19T04:42:41;49.73;;;41.60;;
25163;SDS011;13440;50.860;13.662;2022-08-19T04:45:11;50.65;;;42.53;;
25163;SDS011;13440;50.860;13.662;2022-08-19T04:47:37;55.17;;;46.42;;
25163;SDS011;13440;50.860;13.662;2022-08-19T04:50:02;55.65;;;46.17;;
25163;SDS011;13440;50.860;13.662;2022-08-19T04:52:28;56.20;;;46.35;;
25163;SDS011;13440;50.860;13.662;2022-08-19T04:54:55;52.60;;;44.58;;
25163;SDS011;13440;50.860;13.662;2022-08-19T04:57:20;52.97;;;42.58;;
25163;SDS011;13440;50.860;13.662;2022-08-19T04:59:49;50.05;;;41.53;;
25163;SDS011;13440;50.860;13.662;2022-08-19T05:02:18;52.50;;;43.75;;
25163;SDS011;13440;50.860;13.662;2022-08-19T05:04:43;49.10;;;43.08;;
25163;SDS011;13440;50.860;13.662;2022-08-19T05:07:08;45.38;;;40.45;;
25163;SDS011;13440;50.860;13.662;2022-08-19T05:09:34;47.55;;;41.42;;
25163;SDS011;13440;50.860;13.662;2022-08-19T05:12:00;44.78;;;38.17;;
25163;SDS011;13440;50.860;13.662;2022-08-19T05:14:25;46.40;;;41.40;;
25163;SDS011;13440;50.860;13.662;2022-08-19T05:16:51;47.42;;;40.90;;
25163;SDS011;13440;50.860;13.662;2022-08-19T05:19:16;49.35;;;43.63;;
25163;SDS011;13440;50.860;13.662;2022-08-19T05:22:16;52.40;;;42.88;;
25163;SDS011;13440;50.860;13.662;2022-08-19T05:25:00;51.70;;;43.42;;
25163;SDS011;13440;50.860;13.662;2022-08-19T05:27:26;49.92;;;43.50;;
25163;SDS011;13440;50.860;13.662;2022-08-19T05:29:51;47.08;;;40.25;;
25163;SDS011;13440;50.860;13.662;2022-08-19T05:32:16;47.75;;;40.03;;
25163;SDS011;13440;50.860;13.662;2022-08-19T05:34:41;48.65;;;40.97;;
25163;SDS011;13440;50.860;13.662;2022-08-19T05:37:07;45.72;;;39.38;;
25163;SDS011;13440;50.860;13.662;2022-08-19T05:39:33;43.70;;;38.75;;
25163;SDS011;13440;50.860;13.662;2022-08-19T05:42:04;45.58;;;39.83;;
25163;SDS011;13440;50.860;13.662;2022-08-19T05:44:30;46.25;;;39.30;;
25163;SDS011;13440;50.860;13.662;2022-08-19T05:46:56;47.75;;;40.92;;
25163;SDS011;13440;50.860;13.662;2022-08-19T05:49:22;40.03;;;35.80;;
25163;SDS011;13440;50.860;13.662;2022-08-19T05:51:48;42.83;;;38.00;;
25163;SDS011;13440;50.860;13.662;2022-08-19T05:54:13;43.85;;;39.08;;
25163;SDS011;13440;50.860;13.662;2022-08-19T05:56:42;41.47;;;37.00;;
25163;SDS011;13440;50.860;13.662;2022-08-19T05:59:08;43.08;;;36.88;;
25163;SDS011;13440;50.860;13.662;2022-08-19T06:01:36;40.95;;;36.22;;
25163;SDS011;13440;50.860;13.662;2022-08-19T06:04:02;42.58;;;37.17;;
25163;SDS011;13440;50.860;13.662;2022-08-19T06:06:28;39.33;;;35.13;;
25163;SDS011;13440;50.860;13.662;2022-08-19T06:08:53;42.80;;;36.55;;
25163;SDS011;13440;50.860;13.662;2022-08-19T06:11:20;40.05;;;35.60;;
25163;SDS011;13440;50.860;13.662;2022-08-19T06:13:46;35.58;;;31.70;;
25163;SDS011;13440;50.860;13.662;2022-08-19T06:16:15;40.63;;;33.42;;
25163;SDS011;13440;50.860;13.662;2022-08-19T06:18:56;34.78;;;31.00;;
25163;SDS011;13440;50.860;13.662;2022-08-19T06:21:22;34.88;;;31.02;;
25163;SDS011;13440;50.860;13.662;2022-08-19T06:23:48;34.17;;;30.50;;
25163;SDS011;13440;50.860;13.662;2022-08-19T06:26:14;34.08;;;29.40;;
25163;SDS011;13440;50.860;13.662;2022-08-19T06:28:40;30.73;;;27.42;;
25163;SDS011;13440;50.860;13.662;2022-08-19T06:31:15;30.13;;;27.02;;
25163;SDS011;13440;50.860;13.662;2022-08-19T06:33:41;30.58;;;27.40;;
25163;SDS011;13440;50.860;13.662;2022-08-19T06:36:07;30.45;;;26.33;;
25163;SDS011;13440;50.860;13.662;2022-08-19T06:38:33;31.05;;;27.00;;
25163;SDS011;13440;50.860;13.662;2022-08-19T06:41:05;29.85;;;26.65;;
25163;SDS011;13440;50.860;13.662;2022-08-19T06:43:30;32.95;;;27.00;;
25163;SDS011;13440;50.860;13.662;2022-08-19T06:45:55;29.25;;;25.88;;
25163;SDS011;13440;50.860;13.662;2022-08-19T06:48:23;31.70;;;26.75;;
25163;SDS011;13440;50.860;13.662;2022-08-19T06:50:48;27.83;;;24.85;;
25163;SDS011;13440;50.860;13.662;2022-08-19T06:53:16;25.67;;;22.98;;
25163;SDS011;13440;50.860;13.662;2022-08-19T06:55:44;24.73;;;22.13;;
25163;SDS011;13440;50.860;13.662;2022-08-19T06:58:10;25.75;;;22.48;;
25163;SDS011;13440;50.860;13.662;2022-08-19T07:00:35;24.38;;;21.73;;
25163;SDS011;13440;50.860;13.662;2022-08-19T07:03:01;26.00;;;23.30;;
25163;SDS011;13440;50.860;13.662;2022-08-19T07:05:27;24.75;;;21.42;;
25163;SDS011;13440;50.860;13.662;2022-08-19T07:07:52;23.48;;;20.98;;
25163;SDS011;13440;50.860;13.662;2022-08-19T07:10:18;23.85;;;21.35;;
25163;SDS011;13440;50.860;13.662;2022-08-19T07:12:44;23.90;;;21.52;;
25163;SDS011;13440;50.860;13.662;2022-08-19T07:15:09;26.75;;;22.58;;
25163;SDS011;13440;50.860;13.662;2022-08-19T07:17:35;26.02;;;23.17;;
25163;SDS011;13440;50.860;13.662;2022-08-19T07:20:04;25.75;;;23.05;;
25163;SDS011;13440;50.860;13.662;2022-08-19T07:22:30;24.70;;;22.10;;
25163;SDS011;13440;50.860;13.662;2022-08-19T07:24:56;27.10;;;23.88;;
25163;SDS011;13440;50.860;13.662;2022-08-19T07:27:21;24.55;;;21.95;;
25163;SDS011;13440;50.860;13.662;2022-08-19T07:29:46;26.52;;;23.38;;
25163;SDS011;13440;50.860;13.662;2022-08-19T07:32:12;28.52;;;24.08;;
25163;SDS011;13440;50.860;13.662;2022-08-19T07:34:37;27.10;;;24.02;;
25163;SDS011;13440;50.860;13.662;2022-08-19T07:37:03;28.80;;;25.45;;
25163;SDS011;13440;50.860;13.662;2022-08-19T07:39:30;27.45;;;24.55;;
25163;SDS011;13440;50.860;13.662;2022-08-19T07:41:56;26.80;;;23.90;;
25163;SDS011;13440;50.860;13.662;2022-08-19T07:44:22;26.85;;;23.55;;
25163;SDS011;13440;50.860;13.662;2022-08-19T07:46:49;26.35;;;23.60;;
25163;SDS011;13440;50.860;13.662;2022-08-19T07:49:15;27.70;;;24.80;;
25163;SDS011;13440;50.860;13.662;2022-08-19T07:51:50;26.08;;;23.40;;
25163;SDS011;13440;50.860;13.662;2022-08-19T07:54:16;26.30;;;23.58;;
25163;SDS011;13440;50.860;13.662;2022-08-19T07:56:42;26.42;;;23.65;;
25163;SDS011;13440;50.860;13.662;2022-08-19T07:59:07;31.20;;;24.20;;
25163;SDS011;13440;50.860;13.662;2022-08-19T08:01:34;28.25;;;24.85;;
25163;SDS011;13440;50.860;13.662;2022-08-19T08:03:59;27.90;;;24.90;;
25163;SDS011;13440;50.860;13.662;2022-08-19T08:06:43;26.77;;;23.35;;
25163;SDS011;13440;50.860;13.662;2022-08-19T08:09:29;29.83;;;24.50;;
25163;SDS011;13440;50.860;13.662;2022-08-19T08:11:56;26.90;;;23.35;;
25163;SDS011;13440;50.860;13.662;2022-08-19T08:14:27;26.20;;;23.08;;
25163;SDS011;13440;50.860;13.662;2022-08-19T08:16:52;26.10;;;23.13;;
25163;SDS011;13440;50.860;13.662;2022-08-19T08:19:18;25.75;;;22.38;;
25163;SDS011;13440;50.860;13.662;2022-08-19T08:21:44;25.75;;;22.95;;
25163;SDS011;13440;50.860;13.662;2022-08-19T08:24:10;25.95;;;23.15;;
25163;SDS011;13440;50.860;13.662;2022-08-19T08:26:35;28.08;;;24.33;;
25163;SDS011;13440;50.860;13.662;2022-08-19T08:29:01;26.80;;;24.00;;
25163;SDS011;13440;50.860;13.662;2022-08-19T08:31:27;27.30;;;23.58;;
25163;SDS011;13440;50.860;13.662;2022-08-19T08:33:53;25.95;;;23.13;;
25163;SDS011;13440;50.860;13.662;2022-08-19T08:36:18;26.67;;;23.85;;
25163;SDS011;13440;50.860;13.662;2022-08-19T08:38:44;26.38;;;21.65;;
25163;SDS011;13440;50.860;13.662;2022-08-19T08:41:24;25.42;;;22.38;;
25163;SDS011;13440;50.860;13.662;2022-08-19T08:43:53;26.90;;;24.00;;
25163;SDS011;13440;50.860;13.662;2022-08-19T08:46:27;26.00;;;23.23;;
25163;SDS011;13440;50.860;13.662;2022-08-19T08:51:29;25.05;;;21.63;;
25163;SDS011;13440;50.860;13.662;2022-08-19T08:53:58;23.45;;;20.55;;
25163;SDS011;13440;50.860;13.662;2022-08-19T08:56:23;16.42;;;13.40;;
25163;SDS011;13440;50.860;13.662;2022-08-19T09:01:23;16.92;;;13.93;;
25163;SDS011;13440;50.860;13.662;2022-08-19T09:03:49;17.02;;;15.23;;
25163;SDS011;13440;50.860;13.662;2022-08-19T09:11:25;21.35;;;19.15;;
25163;SDS011;13440;50.860;13.662;2022-08-19T09:16:26;20.33;;;18.25;;
25163;SDS011;13440;50.860;13.662;2022-08-19T09:18:53;19.65;;;17.63;;
25163;SDS011;13440;50.860;13.662;2022-08-19T09:21:20;17.63;;;15.85;;
25163;SDS011;13440;50.860;13.662;2022-08-19T09:23:46;18.40;;;16.48;;
25163;SDS011;13440;50.860;13.662;2022-08-19T09:26:12;20.83;;;18.60;;
25163;SDS011;13440;50.860;13.662;2022-08-19T09:28:39;22.92;;;19.98;;
25163;SDS011;13440;50.860;13.662;2022-08-19T09:31:07;22.92;;;20.13;;
25163;SDS011;13440;50.860;13.662;2022-08-19T09:33:32;21.58;;;19.23;;
25163;SDS011;13440;50.860;13.662;2022-08-19T09:36:09;22.20;;;18.77;;
25163;SDS011;13440;50.860;13.662;2022-08-19T09:38:35;20.42;;;18.17;;
25163;SDS011;13440;50.860;13.662;2022-08-19T09:41:04;21.42;;;17.50;;
25163;SDS011;13440;50.860;13.662;2022-08-19T09:43:30;20.70;;;17.77;;
25163;SDS011;13440;50.860;13.662;2022-08-19T09:45:56;18.40;;;16.00;;
25163;SDS011;13440;50.860;13.662;2022-08-19T09:48:21;19.13;;;16.00;;
25163;SDS011;13440;50.860;13.662;2022-08-19T09:50:46;17.95;;;15.98;;
25163;SDS011;13440;50.860;13.662;2022-08-19T09:53:12;16.88;;;15.18;;
25163;SDS011;13440;50.860;13.662;2022-08-19T09:55:41;18.70;;;16.52;;
25163;SDS011;13440;50.860;13.662;2022-08-19T09:58:10;18.98;;;16.27;;
25163;SDS011;13440;50.860;13.662;2022-08-19T10:03:58;16.42;;;14.18;;
25163;SDS011;13440;50.860;13.662;2022-08-19T10:06:25;13.13;;;11.82;;
25163;SDS011;13440;50.860;13.662;2022-08-19T10:08:51;13.27;;;12.07;;
25163;SDS011;13440;50.860;13.662;2022-08-19T10:11:17;14.48;;;13.07;;
25163;SDS011;13440;50.860;13.662;2022-08-19T10:13:43;14.15;;;12.75;;
25163;SDS011;13440;50.860;13.662;2022-08-19T10:16:10;15.90;;;14.25;;
25163;SDS011;13440;50.860;13.662;2022-08-19T10:18:36;14.18;;;12.85;;
25163;SDS011;13440;50.860;13.662;2022-08-19T10:21:15;14.77;;;13.27;;
25163;SDS011;13440;50.860;13.662;2022-08-19T10:23:43;16.92;;;15.23;;
25163;SDS011;13440;50.860;13.662;2022-08-19T10:26:10;16.98;;;15.38;;
25163;SDS011;13440;50.860;13.662;2022-08-19T10:28:36;16.88;;;15.27;;
25163;SDS011;13440;50.860;13.662;2022-08-19T10:31:08;19.48;;;17.13;;
25163;SDS011;13440;50.860;13.662;2022-08-19T10:33:35;19.20;;;17.27;;
25163;SDS011;13440;50.860;13.662;2022-08-19T10:36:02;20.50;;;18.40;;
25163;SDS011;13440;50.860;13.662;2022-08-19T10:38:27;20.90;;;18.85;;
25163;SDS011;13440;50.860;13.662;2022-08-19T10:40:54;21.17;;;19.08;;
25163;SDS011;13440;50.860;13.662;2022-08-19T10:43:19;20.95;;;18.83;;
25163;SDS011;13440;50.860;13.662;2022-08-19T10:45:48;19.80;;;17.90;;
25163;SDS011;13440;50.860;13.662;2022-08-19T10:48:14;18.55;;;16.75;;
25163;SDS011;13440;50.860;13.662;2022-08-19T10:50:39;18.33;;;16.52;;
25163;SDS011;13440;50.860;13.662;2022-08-19T10:53:29;16.53;;;14.93;;
25163;SDS011;13440;50.860;13.662;2022-08-19T10:55:54;17.45;;;15.68;;
25163;SDS011;13440;50.860;13.662;2022-08-19T10:58:38;15.23;;;13.73;;
25163;SDS011;13440;50.860;13.662;2022-08-19T11:01:04;16.15;;;14.52;;
25163;SDS011;13440;50.860;13.662;2022-08-19T11:03:29;16.40;;;14.57;;
25163;SDS011;13440;50.860;13.662;2022-08-19T11:06:02;14.38;;;12.93;;
25163;SDS011;13440;50.860;13.662;2022-08-19T11:08:28;12.73;;;11.50;;
25163;SDS011;13440;50.860;13.662;2022-08-19T11:10:58;10.82;;;9.88;;
25163;SDS011;13440;50.860;13.662;2022-08-19T11:13:35;10.48;;;9.40;;
25163;SDS011;13440;50.860;13.662;2022-08-19T11:18:34;9.40;;;8.50;;
25163;SDS011;13440;50.860;13.662;2022-08-19T11:21:12;9.80;;;9.00;;
25163;SDS011;13440;50.860;13.662;2022-08-19T11:23:38;9.82;;;8.90;;
25163;SDS011;13440;50.860;13.662;2022-08-19T11:26:04;12.15;;;9.88;;
25163;SDS011;13440;50.860;13.662;2022-08-19T11:28:29;9.85;;;8.88;;
25163;SDS011;13440;50.860;13.662;2022-08-19T11:30:54;11.73;;;10.65;;
25163;SDS011;13440;50.860;13.662;2022-08-19T11:33:20;9.80;;;8.90;;
25163;SDS011;13440;50.860;13.662;2022-08-19T11:35:45;9.25;;;8.45;;
25163;SDS011;13440;50.860;13.662;2022-08-19T11:38:10;10.48;;;9.57;;
25163;SDS011;13440;50.860;13.662;2022-08-19T11:40:36;10.23;;;9.32;;
25163;SDS011;13440;50.860;13.662;2022-08-19T11:43:01;12.05;;;10.85;;
25163;SDS011;13440;50.860;13.662;2022-08-19T11:45:27;11.73;;;10.63;;
25163;SDS011;13440;50.860;13.662;2022-08-19T11:47:54;10.65;;;9.65;;
25163;SDS011;13440;50.860;13.662;2022-08-19T11:50:21;9.45;;;8.48;;
25163;SDS011;13440;50.860;13.662;2022-08-19T11:52:49;8.35;;;7.65;;
25163;SDS011;13440;50.860;13.662;2022-08-19T11:55:14;7.38;;;6.78;;
25163;SDS011;13440;50.860;13.662;2022-08-19T11:57:40;8.20;;;7.50;;
25163;SDS011;13440;50.860;13.662;2022-08-19T12:00:08;6.47;;;5.97;;
25163;SDS011;13440;50.860;13.662;2022-08-19T12:02:36;7.40;;;6.80;;
25163;SDS011;13440;50.860;13.662;2022-08-19T12:05:01;8.15;;;7.38;;
25163;SDS011;13440;50.860;13.662;2022-08-19T12:07:28;7.50;;;6.90;;
25163;SDS011;13440;50.860;13.662;2022-08-19T12:09:56;8.98;;;8.18;;
25163;SDS011;13440;50.860;13.662;2022-08-19T12:12:21;7.78;;;7.18;;
25163;SDS011;13440;50.860;13.662;2022-08-19T12:14:48;7.60;;;6.90;;
25163;SDS011;13440;50.860;13.662;2022-08-19T12:17:15;5.38;;;4.97;;
25163;SDS011;13440;50.860;13.662;2022-08-19T12:19:40;5.28;;;4.88;;
25163;SDS011;13440;50.860;13.662;2022-08-19T12:22:06;5.22;;;4.82;;
25163;SDS011;13440;50.860;13.662;2022-08-19T12:24:32;6.20;;;5.70;;
25163;SDS011;13440;50.860;13.662;2022-08-19T12:26:58;6.75;;;6.25;;
25163;SDS011;13440;50.860;13.662;2022-08-19T12:29:26;6.97;;;6.38;;
25163;SDS011;13440;50.860;13.662;2022-08-19T12:31:54;8.07;;;7.38;;
25163;SDS011;13440;50.860;13.662;2022-08-19T12:34:25;7.55;;;6.95;;
25163;SDS011;13440;50.860;13.662;2022-08-19T12:36:51;7.30;;;6.70;;
25163;SDS011;13440;50.860;13.662;2022-08-19T12:39:16;7.75;;;7.05;;
25163;SDS011;13440;50.860;13.662;2022-08-19T12:41:42;8.48;;;7.78;;
25163;SDS011;13440;50.860;13.662;2022-08-19T12:44:07;9.32;;;8.43;;
25163;SDS011;13440;50.860;13.662;2022-08-19T12:46:33;10.13;;;9.23;;
25163;SDS011;13440;50.860;13.662;2022-08-19T12:48:58;10.43;;;9.15;;
25163;SDS011;13440;50.860;13.662;2022-08-19T12:51:24;9.55;;;8.65;;
25163;SDS011;13440;50.860;13.662;2022-08-19T12:53:50;10.75;;;9.75;;
25163;SDS011;13440;50.860;13.662;2022-08-19T12:56:15;9.75;;;8.75;;
25163;SDS011;13440;50.860;13.662;2022-08-19T12:58:42;10.77;;;9.88;;
25163;SDS011;13440;50.860;13.662;2022-08-19T13:01:08;11.73;;;10.52;;
25163;SDS011;13440;50.860;13.662;2022-08-19T13:03:33;11.75;;;10.50;;
25163;SDS011;13440;50.860;13.662;2022-08-19T13:05:59;11.02;;;10.02;;
25163;SDS011;13440;50.860;13.662;2022-08-19T13:08:24;11.48;;;10.38;;
25163;SDS011;13440;50.860;13.662;2022-08-19T13:10:50;12.02;;;10.93;;
25163;SDS011;13440;50.860;13.662;2022-08-19T13:13:15;14.60;;;13.20;;
25163;SDS011;13440;50.860;13.662;2022-08-19T13:15:41;14.95;;;13.60;;
25163;SDS011;13440;50.860;13.662;2022-08-19T13:18:08;15.88;;;14.40;;
25163;SDS011;13440;50.860;13.662;2022-08-19T13:20:34;16.77;;;15.20;;
25163;SDS011;13440;50.860;13.662;2022-08-19T13:23:00;18.17;;;16.40;;
25163;SDS011;13440;50.860;13.662;2022-08-19T13:25:25;19.73;;;17.92;;
25163;SDS011;13440;50.860;13.662;2022-08-19T13:27:51;20.00;;;18.02;;
25163;SDS011;13440;50.860;13.662;2022-08-19T13:30:17;19.95;;;18.10;;
25163;SDS011;13440;50.860;13.662;2022-08-19T13:33:01;22.50;;;20.30;;
25163;SDS011;13440;50.860;13.662;2022-08-19T13:35:36;22.15;;;20.05;;
25163;SDS011;13440;50.860;13.662;2022-08-19T13:38:02;26.30;;;23.63;;
25163;SDS011;13440;50.860;13.662;2022-08-19T13:40:30;25.02;;;22.63;;
25163;SDS011;13440;50.860;13.662;2022-08-19T13:42:59;26.75;;;24.15;;
25163;SDS011;13440;50.860;13.662;2022-08-19T13:45:24;23.90;;;21.50;;
25163;SDS011;13440;50.860;13.662;2022-08-19T13:47:50;25.50;;;23.00;;
25163;SDS011;13440;50.860;13.662;2022-08-19T13:50:21;23.02;;;20.85;;
25163;SDS011;13440;50.860;13.662;2022-08-19T13:52:47;30.15;;;27.15;;
25163;SDS011;13440;50.860;13.662;2022-08-19T13:55:13;31.35;;;28.05;;
25163;SDS011;13440;50.860;13.662;2022-08-19T13:57:38;37.08;;;30.38;;
25163;SDS011;13440;50.860;13.662;2022-08-19T14:00:06;35.30;;;31.58;;
25163;SDS011;13440;50.860;13.662;2022-08-19T14:02:33;31.85;;;28.40;;
25163;SDS011;13440;50.860;13.662;2022-08-19T14:04:58;36.17;;;31.38;;
25163;SDS011;13440;50.860;13.662;2022-08-19T14:07:23;35.97;;;32.08;;
25163;SDS011;13440;50.860;13.662;2022-08-19T14:09:49;46.13;;;37.10;;
25163;SDS011;13440;50.860;13.662;2022-08-19T14:12:18;49.30;;;39.15;;
25163;SDS011;13440;50.860;13.662;2022-08-19T14:14:43;45.47;;;37.03;;
25163;SDS011;13440;50.860;13.662;2022-08-19T14:17:08;46.42;;;37.25;;
25163;SDS011;13440;50.860;13.662;2022-08-19T14:19:34;47.08;;;38.20;;
25163;SDS011;13440;50.860;13.662;2022-08-19T14:21:59;55.53;;;44.45;;
25163;SDS011;13440;50.860;13.662;2022-08-19T14:24:25;47.88;;;38.22;;
25163;SDS011;13440;50.860;13.662;2022-08-19T14:26:50;51.88;;;42.00;;
25163;SDS011;13440;50.860;13.662;2022-08-19T14:29:15;49.58;;;40.53;;